SM2 weather

CLOSED Miguasha Airport
Miguasha, Quebec, Canada

Public forecast

Using degrees Celsius for public forecast. Weather courtesy of forecast.io.

METAR (pilot weather report)

Closest report is Bathurst Airport, 34.6 nm (64.1 km) SE. Retrieved 2019/05/21 10:34 UTC (2 minutes ago):

CZBF 211034Z AUTO 05005KT 020V100 3SM RA BR BKN004 OVC009 04/04 A2965 RMK SLP043

TAF (pilot weather forecast)

Closest forecast is Bathurst Airport, 34.6 nm (64.1 km) SE. Retrieved 2019/05/21 09:42 UTC (54 minutes ago):

TAF CZBF 210838Z 2109/2121 06005KT 6SM -RA BR OVC004 TEMPO 2109/2121 13/4SM -RA BR OVC002 BECMG 2113/2115 07010G20KT RMK FCST BASED ON AUTO OBS. NXT FCST BY 211400Z